Time;durP1;ratioP1;P1;durP2;ratioP2;P2;SDS_P1;SDS_P2;PMS_P1;PMS_P2;Temp;Humidity;BMP_temperature;BMP_pressure;BME280_temperature;BME280_humidity;BME280_pressure;Samples;Min_cycle;Max_cycle;Signal;HPM_P1;HPM_P2
2021/12/30 00:01:14;;;;;;;0.30;0.30;;;;;;;10.10;100.00;94385.88;4953672;28;20843;-73
2021/12/30 00:03:40;;;;;;;0.40;0.30;;;;;;;10.16;100.00;94390.25;4933810;29;20608;-73
2021/12/30 00:06:07;;;;;;;0.50;0.27;;;;;;;10.20;100.00;94401.72;4942060;28;20205;-73
2021/12/30 00:08:34;;;;;;;0.93;0.20;;;;;;;10.31;100.00;94393.75;4964058;28;20647;-73
2021/12/30 00:11:00;;;;;;;0.70;0.27;;;;;;;10.26;100.00;94396.38;4968146;28;20543;-72
2021/12/30 00:13:27;;;;;;;0.60;0.30;;;;;;;10.25;100.00;94400.34;4934971;29;20206;-72
2021/12/30 00:15:53;;;;;;;0.30;0.30;;;;;;;10.18;100.00;94414.31;4948307;29;20691;-72
2021/12/30 00:18:20;;;;;;;0.57;0.27;;;;;;;10.13;100.00;94428.63;4953393;28;20194;-72
2021/12/30 00:20:45;;;;;;;0.20;0.20;;;;;;;10.14;100.00;94443.75;4922627;29;20198;-72
2021/12/30 00:23:13;;;;;;;0.20;0.20;;;;;;;10.12;100.00;94452.41;4939084;29;20229;-73
2021/12/30 00:25:41;;;;;;;0.57;0.23;;;;;;;10.06;100.00;94440.63;4961387;28;20194;-72
2021/12/30 00:28:19;;;;;;;0.20;0.20;;;;;;;10.02;100.00;94450.94;4934248;29;20194;-72
2021/12/30 00:30:46;;;;;;;0.20;0.20;;;;;;;9.99;100.00;94457.31;4965198;28;20203;-72
2021/12/30 00:33:12;;;;;;;0.20;0.20;;;;;;;9.97;100.00;94453.53;4950362;28;20289;-72
2021/12/30 00:35:38;;;;;;;0.47;0.30;;;;;;;9.92;100.00;94459.63;4951587;28;20249;-73
2021/12/30 00:38:05;;;;;;;0.30;0.30;;;;;;;9.99;100.00;94459.28;4959605;28;20205;-72
2021/12/30 00:40:32;;;;;;;0.73;0.30;;;;;;;9.95;100.00;94462.19;4951152;28;20189;-72
2021/12/30 00:42:59;;;;;;;0.30;0.30;;;;;;;10.04;100.00;94464.09;4949460;28;20230;-72
2021/12/30 00:45:27;;;;;;;0.30;0.30;;;;;;;9.98;100.00;94457.78;4948857;29;20224;-72
2021/12/30 00:47:53;;;;;;;0.20;0.20;;;;;;;10.00;100.00;94460.78;4943536;29;20198;-72
2021/12/30 00:50:19;;;;;;;0.87;0.20;;;;;;;9.89;100.00;94453.13;4952882;29;20233;-73
2021/12/30 00:52:45;;;;;;;0.30;0.30;;;;;;;9.99;100.00;94465.50;4943129;29;20245;-73
2021/12/30 00:55:14;;;;;;;0.30;0.30;;;;;;;9.99;100.00;94456.56;4947917;29;20198;-72
2021/12/30 00:57:41;;;;;;;1.77;0.30;;;;;;;9.93;100.00;94459.16;4948967;29;20249;-72
2021/12/30 01:00:11;;;;;;;0.83;0.30;;;;;;;9.98;100.00;94465.97;4948304;29;20202;-73
2021/12/30 01:02:37;;;;;;;0.20;0.20;;;;;;;10.05;100.00;94457.41;4933281;29;20232;-73
2021/12/30 01:05:04;;;;;;;1.33;0.40;;;;;;;10.11;100.00;94475.47;4948493;28;20233;-72
2021/12/30 01:07:29;;;;;;;1.17;0.30;;;;;;;10.11;100.00;94472.75;4970977;28;20204;-73
2021/12/30 01:09:55;;;;;;;0.30;0.30;;;;;;;10.11;100.00;94480.94;4953891;28;20205;-73
2021/12/30 01:12:21;;;;;;;0.20;0.20;;;;;;;10.12;100.00;94479.69;4948413;28;20198;-73
2021/12/30 01:14:48;;;;;;;0.40;0.40;;;;;;;10.11;100.00;94493.81;4950919;29;20288;-73
2021/12/30 01:17:27;;;;;;;0.30;0.30;;;;;;;10.12;100.00;94487.13;4934951;29;20212;-73
2021/12/30 01:19:53;;;;;;;0.30;0.30;;;;;;;10.10;100.00;94498.50;4951463;28;20205;-73
2021/12/30 01:22:26;;;;;;;0.33;0.33;;;;;;;10.13;100.00;94505.03;4951084;29;20221;-73
2021/12/30 01:24:53;;;;;;;0.40;0.30;;;;;;;10.20;100.00;94504.69;4935303;29;20197;-73
2021/12/30 01:27:20;;;;;;;0.20;0.20;;;;;;;10.16;100.00;94515.00;4934508;28;20198;-72
2021/12/30 01:29:47;;;;;;;0.23;0.23;;;;;;;10.08;100.00;94514.56;4945841;28;20217;-73
2021/12/30 01:32:13;;;;;;;0.30;0.30;;;;;;;10.06;100.00;94503.38;4950851;28;20245;-73
2021/12/30 01:34:38;;;;;;;0.40;0.40;;;;;;;10.05;100.00;94515.47;4938188;28;20305;-73
2021/12/30 01:37:05;;;;;;;0.30;0.30;;;;;;;10.10;100.00;94517.59;4964278;28;20223;-73
2021/12/30 01:39:34;;;;;;;0.50;0.50;;;;;;;10.11;100.00;94526.56;4962575;28;20189;-73
2021/12/30 01:42:00;;;;;;;0.30;0.30;;;;;;;10.05;100.00;94537.31;4969838;28;20209;-73
2021/12/30 01:44:28;;;;;;;0.40;0.40;;;;;;;10.04;100.00;94521.41;4917700;29;20330;-73
2021/12/30 01:46:55;;;;;;;0.40;0.40;;;;;;;10.05;100.00;94536.53;4950626;28;20204;-73
2021/12/30 01:49:21;;;;;;;0.30;0.30;;;;;;;10.10;100.00;94555.81;4951542;28;20762;-73
2021/12/30 01:51:48;;;;;;;1.70;0.30;;;;;;;10.13;100.00;94552.16;4952370;28;20193;-72
2021/12/30 01:54:14;;;;;;;0.30;0.30;;;;;;;10.10;100.00;94555.03;4933759;28;20752;-72
2021/12/30 01:56:40;;;;;;;0.30;0.30;;;;;;;10.11;100.00;94560.06;4936040;29;20196;-72
2021/12/30 01:59:07;;;;;;;0.20;0.20;;;;;;;10.09;100.00;94550.81;4934915;29;20673;-72
2021/12/30 02:01:33;;;;;;;0.20;0.20;;;;;;;10.13;100.00;94570.50;4951225;28;20690;-72
2021/12/30 02:03:59;;;;;;;0.20;0.20;;;;;;;10.22;100.00;94581.34;4948498;28;20679;-72
2021/12/30 02:06:26;;;;;;;0.30;0.30;;;;;;;10.21;100.00;94585.31;4938172;28;20583;-72
2021/12/30 02:08:52;;;;;;;0.20;0.20;;;;;;;10.14;100.00;94580.19;4946033;28;20184;-72
2021/12/30 02:11:19;;;;;;;0.30;0.30;;;;;;;10.21;100.00;94585.31;4943464;29;20619;-72
2021/12/30 02:13:48;;;;;;;0.83;0.30;;;;;;;10.21;100.00;94590.78;4933057;29;20298;-72
2021/12/30 02:16:16;;;;;;;0.20;0.20;;;;;;;10.22;100.00;94592.28;4949322;29;20553;-72
2021/12/30 02:18:42;;;;;;;0.37;0.20;;;;;;;10.28;100.00;94612.28;4950691;29;20593;-72
2021/12/30 02:21:08;;;;;;;0.40;0.40;;;;;;;10.24;100.00;94600.75;4950623;29;20371;-72
2021/12/30 02:23:36;;;;;;;0.20;0.20;;;;;;;10.24;100.00;94592.56;4949339;28;20269;-72
2021/12/30 02:26:06;;;;;;;0.80;0.47;;;;;;;10.22;100.00;94600.47;4906014;29;20622;-72
2021/12/30 02:28:34;;;;;;;0.20;0.20;;;;;;;10.23;100.00;94597.28;4951942;29;20265;-72
2021/12/30 02:31:02;;;;;;;0.20;0.20;;;;;;;10.30;100.00;94601.66;4950890;29;20253;-72
2021/12/30 02:33:28;;;;;;;0.30;0.30;;;;;;;10.23;100.00;94610.19;4950463;28;20356;-72
2021/12/30 02:35:55;;;;;;;0.50;0.20;;;;;;;10.24;100.00;94606.22;4929619;28;20621;-72
2021/12/30 02:38:22;;;;;;;0.20;0.20;;;;;;;10.20;100.00;94611.84;4962735;28;20202;-72
2021/12/30 02:40:51;;;;;;;1.37;0.30;;;;;;;10.15;100.00;94614.44;4965093;28;20625;-72
2021/12/30 02:43:20;;;;;;;0.20;0.20;;;;;;;10.20;100.00;94616.56;4964802;28;20276;-72
2021/12/30 02:45:46;;;;;;;0.30;0.30;;;;;;;10.11;100.00;94608.41;4938474;29;20198;-72
2021/12/30 02:48:17;;;;;;;0.20;0.20;;;;;;;10.13;100.00;94616.91;4949590;29;20189;-72
2021/12/30 02:50:45;;;;;;;0.77;0.40;;;;;;;10.13;100.00;94606.72;4964717;28;20206;-72
2021/12/30 02:53:13;;;;;;;0.30;0.30;;;;;;;10.09;100.00;94608.09;4966334;28;20608;-72
2021/12/30 02:55:39;;;;;;;0.27;0.27;;;;;;;10.08;100.00;94612.03;4965461;28;20302;-72
2021/12/30 02:58:05;;;;;;;0.20;0.20;;;;;;;10.10;100.00;94615.06;4933975;29;20193;-72
2021/12/30 03:00:31;;;;;;;0.20;0.20;;;;;;;10.04;100.00;94614.16;4953940;28;20636;-72
2021/12/30 03:02:57;;;;;;;0.43;0.43;;;;;;;10.11;100.00;94628.28;4954225;28;20253;-72
2021/12/30 03:05:24;;;;;;;0.20;0.20;;;;;;;10.16;100.00;94637.81;4950274;29;20261;-72
2021/12/30 03:07:51;;;;;;;1.00;0.30;;;;;;;10.20;100.00;94630.22;4961036;28;20276;-73
2021/12/30 03:10:19;;;;;;;0.30;0.30;;;;;;;10.10;100.00;94625.97;4956992;28;20648;-72
2021/12/30 03:12:45;;;;;;;0.70;0.23;;;;;;;10.23;100.00;94629.28;4952098;28;20309;-72
2021/12/30 03:15:13;;;;;;;0.27;0.27;;;;;;;10.23;100.00;94646.41;4953155;29;20194;-72
2021/12/30 03:17:39;;;;;;;0.20;0.20;;;;;;;10.28;100.00;94651.25;4954021;28;20268;-72
2021/12/30 03:20:09;;;;;;;0.23;0.23;;;;;;;10.31;100.00;94649.56;4937881;29;20226;-72
2021/12/30 03:22:39;;;;;;;0.30;0.30;;;;;;;10.35;100.00;94661.81;4950374;28;20222;-71
2021/12/30 03:25:07;;;;;;;1.40;0.33;;;;;;;10.30;100.00;94670.63;4933908;29;20206;-72
2021/12/30 03:27:33;;;;;;;0.30;0.30;;;;;;;10.36;100.00;94674.28;4949862;29;20550;-72
2021/12/30 03:29:59;;;;;;;1.03;0.30;;;;;;;10.30;100.00;94676.09;4935406;29;20226;-71
2021/12/30 03:32:25;;;;;;;0.73;0.50;;;;;;;10.38;100.00;94679.25;4935195;29;20202;-71
2021/12/30 03:34:50;;;;;;;0.63;0.30;;;;;;;10.38;100.00;94688.22;4949600;29;20206;-72
2021/12/30 03:37:16;;;;;;;0.47;0.30;;;;;;;10.41;100.00;94686.53;4953070;28;20249;-72
2021/12/30 03:39:42;;;;;;;1.20;0.30;;;;;;;10.44;100.00;94718.34;4961418;28;20226;-72
2021/12/30 03:42:08;;;;;;;1.00;0.40;;;;;;;10.43;100.00;94705.94;4967549;28;20223;-71
2021/12/30 03:44:34;;;;;;;0.30;0.30;;;;;;;10.51;100.00;94718.03;4938445;28;20229;-71
2021/12/30 03:46:59;;;;;;;0.20;0.20;;;;;;;10.42;100.00;94720.81;4944908;29;20209;-72
2021/12/30 03:49:25;;;;;;;0.30;0.30;;;;;;;10.35;100.00;94712.94;4961071;28;20297;-71
2021/12/30 03:51:53;;;;;;;0.30;0.30;;;;;;;10.28;100.00;94719.50;4938865;29;20226;-71
2021/12/30 03:54:19;;;;;;;0.40;0.40;;;;;;;10.32;100.00;94741.91;4927893;28;20309;-72
2021/12/30 03:56:45;;;;;;;0.10;0.10;;;;;;;10.31;100.00;94736.91;4954113;28;20276;-71
2021/12/30 03:59:11;;;;;;;0.30;0.30;;;;;;;10.30;100.00;94733.41;4966471;28;20670;-72
2021/12/30 04:01:37;;;;;;;0.20;0.20;;;;;;;10.29;100.00;94737.38;4969465;28;20228;-72
2021/12/30 04:04:03;;;;;;;0.30;0.30;;;;;;;10.31;100.00;94739.66;4968253;28;20592;-72
2021/12/30 04:06:29;;;;;;;0.27;0.23;;;;;;;10.23;100.00;94747.38;4948627;28;20198;-72
2021/12/30 04:08:56;;;;;;;0.83;0.20;;;;;;;10.19;100.00;94746.03;4963846;28;20504;-71
2021/12/30 04:11:26;;;;;;;0.20;0.20;;;;;;;10.18;100.00;94755.44;4960121;28;20637;-72
2021/12/30 04:13:57;;;;;;;0.30;0.30;;;;;;;10.20;100.00;94759.22;4944748;29;20543;-72
2021/12/30 04:16:23;;;;;;;1.57;0.30;;;;;;;10.24;100.00;94748.16;4953604;28;20257;-72
2021/12/30 04:18:49;;;;;;;0.30;0.30;;;;;;;10.24;100.00;94745.41;4952522;29;20202;-72
2021/12/30 04:21:17;;;;;;;0.30;0.30;;;;;;;10.18;100.00;94752.72;4917171;29;20237;-72
2021/12/30 04:23:43;;;;;;;1.47;0.50;;;;;;;10.21;100.00;94746.34;4933729;29;20784;-72
2021/12/30 04:26:12;;;;;;;0.30;0.30;;;;;;;10.22;100.00;94754.06;4948701;28;20699;-72
2021/12/30 04:28:38;;;;;;;0.30;0.30;;;;;;;10.18;100.00;94771.81;4934578;29;20191;-72
2021/12/30 04:31:04;;;;;;;0.20;0.20;;;;;;;10.26;100.00;94783.94;4953332;29;20194;-71
2021/12/30 04:33:31;;;;;;;0.20;0.20;;;;;;;10.28;100.00;94785.00;4950340;29;20276;-72
2021/12/30 04:35:57;;;;;;;0.20;0.20;;;;;;;10.27;100.00;94791.66;4944568;29;20281;-72
2021/12/30 04:38:24;;;;;;;0.20;0.20;;;;;;;10.30;100.00;94782.56;4960148;28;20607;-71
2021/12/30 04:40:50;;;;;;;0.43;0.20;;;;;;;10.36;100.00;94785.44;4937682;28;20722;-72
2021/12/30 04:43:15;;;;;;;0.90;0.40;;;;;;;10.37;100.00;94790.44;4952557;28;20217;-72
2021/12/30 04:45:43;;;;;;;0.20;0.20;;;;;;;10.30;100.00;94790.00;4946377;28;20202;-72
2021/12/30 04:48:09;;;;;;;0.30;0.30;;;;;;;10.23;100.00;94784.84;4935444;29;20218;-72
2021/12/30 04:50:34;;;;;;;0.67;0.37;;;;;;;10.25;100.00;94796.06;4948158;28;20210;-72
2021/12/30 04:53:00;;;;;;;0.30;0.30;;;;;;;10.25;100.00;94802.28;4932854;29;20301;-72
2021/12/30 04:55:26;;;;;;;0.40;0.40;;;;;;;10.35;100.00;94811.97;4940140;29;20519;-71
2021/12/30 04:57:52;;;;;;;0.33;0.30;;;;;;;10.22;100.00;94822.31;4932502;29;20190;-71
2021/12/30 05:00:17;;;;;;;0.30;0.30;;;;;;;10.25;100.00;94826.84;4932433;29;20222;-71
2021/12/30 05:03:29;;;;;;;1.23;0.33;;;;;;;10.20;100.00;94829.44;4916098;29;20241;-72
2021/12/30 05:05:29;;;;;;;0.97;0.37;;;;;;;10.16;100.00;94839.75;4945866;28;20301;-71
2021/12/30 05:07:55;;;;;;;0.27;0.23;;;;;;;10.14;100.00;94842.94;4959010;28;20288;-71
2021/12/30 05:10:21;;;;;;;0.63;0.30;;;;;;;10.18;100.00;94831.88;4967728;28;20247;-71
2021/12/30 05:12:46;;;;;;;0.60;0.50;;;;;;;10.23;100.00;94842.91;4947693;28;20249;-71
2021/12/30 05:15:13;;;;;;;0.30;0.30;;;;;;;10.25;100.00;94847.94;4951070;29;20224;-73
2021/12/30 05:17:40;;;;;;;0.87;0.30;;;;;;;10.33;100.00;94846.41;4934609;29;20213;-71
2021/12/30 05:20:07;;;;;;;0.33;0.30;;;;;;;10.33;100.00;94847.16;4952877;28;20204;-72
2021/12/30 05:22:32;;;;;;;1.50;0.40;;;;;;;10.34;100.00;94845.94;4936681;29;20225;-71
2021/12/30 05:25:01;;;;;;;0.50;0.30;;;;;;;10.42;100.00;94846.41;4931808;29;20198;-71
2021/12/30 05:27:30;;;;;;;0.27;0.27;;;;;;;10.32;100.00;94848.38;4933546;29;20194;-72
2021/12/30 05:29:56;;;;;;;0.27;0.20;;;;;;;10.32;100.00;94851.09;4935024;29;20205;-72
2021/12/30 05:32:21;;;;;;;0.47;0.40;;;;;;;10.35;100.00;94843.97;4934641;29;20194;-72
2021/12/30 05:34:47;;;;;;;0.20;0.20;;;;;;;10.32;100.00;94836.69;4950403;29;20275;-72
2021/12/30 05:37:13;;;;;;;0.30;0.30;;;;;;;10.36;100.00;94845.47;4943275;28;20268;-71
2021/12/30 05:39:41;;;;;;;0.20;0.20;;;;;;;10.36;100.00;94842.75;4963792;28;20279;-72
2021/12/30 05:42:08;;;;;;;0.37;0.30;;;;;;;10.39;100.00;94856.25;4956920;28;20245;-71
2021/12/30 05:44:33;;;;;;;0.30;0.30;;;;;;;10.39;100.00;94852.75;4930512;29;20222;-72
2021/12/30 05:46:59;;;;;;;0.70;0.37;;;;;;;10.36;100.00;94867.31;4930647;28;20214;-72
2021/12/30 05:49:25;;;;;;;1.03;0.40;;;;;;;10.31;100.00;94867.94;4932062;29;20668;-72
2021/12/30 05:51:50;;;;;;;1.03;0.20;;;;;;;10.41;100.00;94866.72;4931722;29;20194;-72
2021/12/30 05:54:16;;;;;;;0.13;0.13;;;;;;;10.35;100.00;94876.75;4932925;29;20214;-72
2021/12/30 05:56:42;;;;;;;0.30;0.30;;;;;;;10.34;100.00;94886.91;4947130;29;20277;-72
2021/12/30 05:59:10;;;;;;;0.30;0.30;;;;;;;10.39;100.00;94880.06;4933270;29;20230;-72
2021/12/30 06:01:36;;;;;;;0.40;0.40;;;;;;;10.33;100.00;94898.28;4932089;29;20285;-71
2021/12/30 06:04:02;;;;;;;0.30;0.30;;;;;;;10.35;100.00;94887.66;4939402;28;20241;-72
2021/12/30 06:06:27;;;;;;;0.20;0.20;;;;;;;10.32;100.00;94883.84;4939730;28;20296;-72
2021/12/30 06:08:54;;;;;;;1.17;0.30;;;;;;;10.35;100.00;94890.38;4960234;28;20189;-72
2021/12/30 06:11:19;;;;;;;0.33;0.30;;;;;;;10.31;100.00;94895.25;4971109;28;20601;-71
2021/12/30 06:13:45;;;;;;;0.67;0.30;;;;;;;10.45;100.00;94905.56;4957440;28;20276;-71
2021/12/30 06:16:11;;;;;;;0.30;0.20;;;;;;;10.40;100.00;94901.44;4950373;29;20264;-72
2021/12/30 06:18:36;;;;;;;0.50;0.40;;;;;;;10.40;100.00;94906.16;4951617;28;20568;-71
2021/12/30 06:21:02;;;;;;;0.20;0.20;;;;;;;10.42;100.00;94907.22;4951720;28;20204;-72
2021/12/30 06:23:28;;;;;;;0.30;0.30;;;;;;;10.33;100.00;94898.28;4931013;29;20214;-72
2021/12/30 06:25:53;;;;;;;0.30;0.30;;;;;;;10.27;100.00;94906.31;4942038;29;20204;-72
2021/12/30 06:28:19;;;;;;;2.00;0.40;;;;;;;10.32;100.00;94927.53;4951657;28;20190;-71
2021/12/30 06:30:45;;;;;;;0.67;0.30;;;;;;;10.35;100.00;94918.44;4949592;29;20655;-71
2021/12/30 06:33:10;;;;;;;0.27;0.20;;;;;;;10.36;100.00;94919.19;4930816;29;20202;-71
2021/12/30 06:35:36;;;;;;;0.30;0.30;;;;;;;10.41;100.00;94924.06;4962789;28;20193;-71
2021/12/30 06:38:03;;;;;;;0.20;0.20;;;;;;;10.38;100.00;94914.03;4963214;28;20189;-71
2021/12/30 06:40:30;;;;;;;0.20;0.20;;;;;;;10.36;100.00;94916.47;4969601;28;20189;-71
2021/12/30 06:42:56;;;;;;;0.20;0.20;;;;;;;10.33;100.00;94918.16;4950240;28;20226;-71
2021/12/30 06:45:22;;;;;;;1.07;0.47;;;;;;;10.33;100.00;94928.31;4941033;29;20534;-71
2021/12/30 06:47:48;;;;;;;0.73;0.60;;;;;;;10.38;100.00;94916.78;4937263;29;20911;-72
2021/12/30 06:50:15;;;;;;;0.50;0.50;;;;;;;10.35;100.00;94934.06;4938115;29;20301;-71
2021/12/30 06:52:43;;;;;;;0.30;0.30;;;;;;;10.38;100.00;94933.16;4954639;28;20281;-71
2021/12/30 06:55:10;;;;;;;0.43;0.20;;;;;;;10.52;100.00;94936.03;4954633;28;20205;-72
2021/12/30 06:57:35;;;;;;;0.20;0.20;;;;;;;10.45;100.00;94935.59;4956074;28;20277;-72
2021/12/30 07:00:06;;;;;;;1.77;0.20;;;;;;;10.58;100.00;94950.59;4953707;29;20300;-72
2021/12/30 07:02:34;;;;;;;0.20;0.20;;;;;;;10.59;100.00;94963.03;4954772;28;20222;-73
2021/12/30 07:05:00;;;;;;;0.73;0.23;;;;;;;10.55;100.00;94958.94;4940190;29;20221;-72
2021/12/30 07:07:26;;;;;;;0.53;0.30;;;;;;;10.52;100.00;94968.78;4956508;28;20243;-73
2021/12/30 07:09:52;;;;;;;0.73;0.20;;;;;;;10.59;100.00;94968.50;4965096;28;20196;-72
2021/12/30 07:12:17;;;;;;;0.30;0.27;;;;;;;10.76;100.00;94966.22;4965543;28;20198;-72
2021/12/30 07:14:43;;;;;;;0.33;0.20;;;;;;;10.76;100.00;94972.44;4936101;29;20210;-72
2021/12/30 07:17:09;;;;;;;0.20;0.20;;;;;;;10.65;100.00;94974.88;4954070;28;20198;-72
2021/12/30 07:19:35;;;;;;;0.10;0.10;;;;;;;10.67;100.00;94975.16;4937650;29;20325;-72
2021/12/30 07:22:00;;;;;;;0.20;0.20;;;;;;;10.58;100.00;94979.88;4937389;29;20300;-72
2021/12/30 07:24:26;;;;;;;0.20;0.20;;;;;;;10.58;100.00;94977.91;4942048;28;20213;-72
2021/12/30 07:26:52;;;;;;;0.10;0.10;;;;;;;10.60;100.00;94980.97;4934773;29;20194;-72
2021/12/30 07:29:18;;;;;;;0.10;0.10;;;;;;;10.59;100.00;94978.66;4939186;29;20199;-72
2021/12/30 07:31:44;;;;;;;0.30;0.30;;;;;;;10.57;100.00;94984.56;4953893;28;20221;-72
2021/12/30 07:34:10;;;;;;;0.20;0.20;;;;;;;10.70;100.00;94982.47;4945549;28;20242;-72
2021/12/30 07:36:36;;;;;;;0.20;0.20;;;;;;;10.62;100.00;94983.97;4946104;28;20242;-72
2021/12/30 07:39:02;;;;;;;0.53;0.23;;;;;;;10.65;100.00;94985.81;4964571;28;20208;-72
2021/12/30 07:41:28;;;;;;;0.30;0.30;;;;;;;10.64;100.00;94992.47;4945834;29;20229;-72
2021/12/30 07:43:54;;;;;;;0.17;0.17;;;;;;;10.57;100.00;94992.03;4918692;29;20210;-72
2021/12/30 07:46:19;;;;;;;0.13;0.13;;;;;;;10.61;100.00;94993.38;4939907;29;20225;-72
2021/12/30 07:48:45;;;;;;;0.20;0.20;;;;;;;10.54;100.00;94993.69;4953623;28;20194;-72
2021/12/30 07:51:11;;;;;;;0.30;0.30;;;;;;;10.49;100.00;94985.31;4947231;29;20200;-72
2021/12/30 07:53:37;;;;;;;0.73;0.30;;;;;;;10.44;100.00;94988.66;4954416;28;20218;-72
2021/12/30 07:56:03;;;;;;;0.20;0.20;;;;;;;10.41;100.00;94987.63;4937526;29;20278;-72
2021/12/30 07:58:30;;;;;;;1.70;0.20;;;;;;;10.40;100.00;94986.06;4934889;29;20254;-72
2021/12/30 08:00:55;;;;;;;1.70;0.20;;;;;;;10.35;100.00;94981.22;4934745;29;20190;-73
2021/12/30 08:03:21;;;;;;;0.20;0.20;;;;;;;10.33;100.00;94985.63;4939312;29;20295;-73
2021/12/30 08:05:48;;;;;;;0.73;0.20;;;;;;;10.26;100.00;94975.78;4953071;28;20212;-73
2021/12/30 08:08:14;;;;;;;0.10;0.10;;;;;;;10.35;100.00;94985.94;4955735;28;20194;-73
2021/12/30 08:10:39;;;;;;;0.10;0.10;;;;;;;10.33;100.00;94994.59;4954302;28;20562;-73
2021/12/30 08:13:05;;;;;;;2.73;0.43;;;;;;;10.31;100.00;94986.09;4954379;28;20218;-73
2021/12/30 08:15:31;;;;;;;0.23;0.23;;;;;;;10.32;100.00;94995.00;4953368;28;20232;-73
2021/12/30 08:17:57;;;;;;;0.23;0.20;;;;;;;10.32;100.00;94995.00;4953005;28;20229;-73
2021/12/30 08:20:23;;;;;;;0.30;0.30;;;;;;;10.31;100.00;94991.53;4953729;28;20190;-73
2021/12/30 08:22:51;;;;;;;0.20;0.20;;;;;;;10.37;100.00;94995.19;4951839;28;20662;-73
2021/12/30 08:25:17;;;;;;;0.30;0.30;;;;;;;10.32;100.00;94990.31;4942885;28;20677;-73
2021/12/30 08:27:44;;;;;;;0.30;0.30;;;;;;;10.35;100.00;95000.31;4933069;29;20680;-73
2021/12/30 08:30:16;;;;;;;0.30;0.30;;;;;;;10.42;100.00;94999.31;4944514;28;20198;-73
2021/12/30 08:32:43;;;;;;;0.60;0.20;;;;;;;10.45;100.00;94990.19;4944575;29;20563;-73
2021/12/30 08:35:11;;;;;;;0.20;0.20;;;;;;;10.40;100.00;95004.44;4936110;29;20186;-73
2021/12/30 08:37:43;;;;;;;0.47;0.20;;;;;;;10.46;100.00;94997.16;4954475;28;20652;-72
2021/12/30 08:40:11;;;;;;;0.17;0.17;;;;;;;10.48;100.00;94995.50;4955372;28;20200;-72
2021/12/30 08:42:37;;;;;;;0.90;0.17;;;;;;;10.46;100.00;94994.44;4933098;29;20206;-73
2021/12/30 08:45:05;;;;;;;0.20;0.20;;;;;;;10.53;100.00;94997.63;4936637;28;20324;-73
2021/12/30 08:47:31;;;;;;;0.30;0.30;;;;;;;10.55;100.00;94999.91;4951535;29;20506;-73
2021/12/30 08:49:58;;;;;;;0.30;0.30;;;;;;;10.52;100.00;94996.09;4932170;29;20201;-73
2021/12/30 08:52:27;;;;;;;0.50;0.30;;;;;;;10.62;100.00;95003.09;4916980;29;20191;-73
2021/12/30 08:54:56;;;;;;;0.20;0.20;;;;;;;10.68;100.00;95008.72;4935747;29;20194;-73
2021/12/30 08:57:22;;;;;;;0.20;0.20;;;;;;;10.71;100.00;95018.72;4916752;29;20191;-73
2021/12/30 08:59:49;;;;;;;3.43;0.30;;;;;;;10.76;100.00;95016.16;4933928;29;20286;-73
2021/12/30 09:02:14;;;;;;;0.87;0.30;;;;;;;10.72;100.00;95023.00;4935256;29;20299;-73
2021/12/30 09:04:44;;;;;;;0.20;0.20;;;;;;;10.76;100.00;95026.31;4952841;28;20633;-73
2021/12/30 09:07:10;;;;;;;0.30;0.30;;;;;;;10.83;100.00;95029.50;4957176;28;20193;-73
2021/12/30 09:09:36;;;;;;;0.57;0.30;;;;;;;10.81;100.00;95023.75;4962954;28;20192;-73
2021/12/30 09:12:02;;;;;;;0.17;0.10;;;;;;;10.88;100.00;95015.25;4945331;28;20186;-73
2021/12/30 09:14:28;;;;;;;0.30;0.20;;;;;;;10.92;100.00;95034.97;4933999;29;20218;-72
2021/12/30 09:16:54;;;;;;;0.30;0.30;;;;;;;10.96;100.00;95034.84;4928455;29;20186;-72
2021/12/30 09:19:19;;;;;;;0.20;0.20;;;;;;;11.05;100.00;95023.88;4947747;29;20194;-72
2021/12/30 09:21:45;;;;;;;1.50;0.30;;;;;;;11.11;100.00;95041.19;4933447;29;20215;-72
2021/12/30 09:24:12;;;;;;;0.30;0.30;;;;;;;11.18;100.00;95032.69;4933179;29;20249;-72
2021/12/30 09:26:39;;;;;;;0.80;0.33;;;;;;;11.27;100.00;95038.13;4933313;29;20245;-72
2021/12/30 09:29:10;;;;;;;0.40;0.30;;;;;;;11.23;100.00;95039.50;4936539;29;20265;-72
2021/12/30 09:32:02;;;;;;;0.30;0.30;;;;;;;11.21;100.00;95036.47;4950701;29;20182;-72
2021/12/30 09:34:28;;;;;;;0.77;0.30;;;;;;;11.18;100.00;95053.78;4943348;28;20229;-72
2021/12/30 09:36:54;;;;;;;0.23;0.23;;;;;;;11.19;100.00;95042.41;4954380;28;20952;-72
2021/12/30 09:39:20;;;;;;;3.70;0.60;;;;;;;11.26;100.00;95050.28;4962583;28;20283;-72
2021/12/30 09:41:47;;;;;;;0.30;0.30;;;;;;;11.29;100.00;95048.59;4958833;28;20197;-72
2021/12/30 09:44:16;;;;;;;0.30;0.30;;;;;;;11.27;100.00;95053.78;4936124;29;20305;-72
2021/12/30 09:46:42;;;;;;;0.30;0.30;;;;;;;11.22;100.00;95040.72;4947405;29;20212;-72
2021/12/30 09:49:11;;;;;;;0.90;0.20;;;;;;;11.29;100.00;95049.38;4926291;29;20228;-72
2021/12/30 09:51:37;;;;;;;0.30;0.30;;;;;;;11.31;100.00;95049.69;4934496;29;20657;-72
2021/12/30 09:54:03;;;;;;;2.47;0.73;;;;;;;11.37;100.00;95044.34;4932080;29;20234;-72
2021/12/30 09:56:30;;;;;;;1.70;0.40;;;;;;;11.38;100.00;95038.44;4952111;29;20202;-72
2021/12/30 09:58:56;;;;;;;1.07;0.30;;;;;;;11.31;100.00;95036.00;4951231;29;20190;-72
2021/12/30 10:01:22;;;;;;;0.23;0.23;;;;;;;11.28;100.00;95027.97;4934626;29;20222;-72
2021/12/30 10:03:49;;;;;;;0.20;0.20;;;;;;;11.29;100.00;95026.72;4963409;28;20225;-72
2021/12/30 10:06:17;;;;;;;0.90;0.40;;;;;;;11.24;100.00;95019.16;4938056;28;20209;-72
2021/12/30 10:08:54;;;;;;;0.30;0.30;;;;;;;11.25;100.00;95015.22;4961511;28;20189;-72
2021/12/30 10:11:20;;;;;;;0.30;0.30;;;;;;;11.23;100.00;95003.97;4976212;28;20184;-72
2021/12/30 10:14:02;;;;;;;0.20;0.20;;;;;;;11.28;100.00;95009.59;4966086;28;20202;-72
2021/12/30 10:16:28;;;;;;;2.20;0.40;;;;;;;11.37;100.00;95015.00;4953636;29;20313;-72
2021/12/30 10:19:00;;;;;;;1.27;0.30;;;;;;;11.51;100.00;95013.63;4958207;28;20643;-72
2021/12/30 10:21:40;;;;;;;0.50;0.23;;;;;;;11.61;100.00;95021.34;4957521;28;20217;-74
2021/12/30 10:24:09;;;;;;;0.47;0.30;;;;;;;11.85;100.00;95026.91;4944650;28;20218;-73
2021/12/30 10:26:57;;;;;;;0.40;0.30;;;;;;;11.91;100.00;95033.28;4942339;29;20666;-72
2021/12/30 10:29:25;;;;;;;0.30;0.30;;;;;;;11.91;100.00;95030.56;4944902;29;20189;-72
2021/12/30 10:31:53;;;;;;;0.67;0.30;;;;;;;11.87;100.00;95016.25;4957712;29;20611;-72
2021/12/30 10:34:20;;;;;;;1.20;0.23;;;;;;;11.86;100.00;95018.25;4954329;28;20280;-72
2021/12/30 10:36:48;;;;;;;0.33;0.33;;;;;;;11.86;100.00;95023.72;4947079;28;20204;-73
2021/12/30 10:39:27;;;;;;;0.60;0.30;;;;;;;11.95;100.00;95020.19;4964981;28;20201;-73
2021/12/30 10:41:58;;;;;;;1.50;0.30;;;;;;;11.94;100.00;95011.22;4962065;28;20214;-73
2021/12/30 10:44:24;;;;;;;0.50;0.23;;;;;;;11.87;100.00;95013.53;4939178;29;20214;-73
2021/12/30 10:46:54;;;;;;;0.33;0.20;;;;;;;11.94;100.00;95022.19;4951636;28;20253;-72
2021/12/30 10:49:26;;;;;;;2.60;0.50;;;;;;;11.96;100.00;95011.50;4937697;29;20186;-73
2021/12/30 10:51:54;;;;;;;0.20;0.20;;;;;;;12.05;100.00;95014.22;4938899;29;20209;-73
2021/12/30 10:54:32;;;;;;;0.60;0.37;;;;;;;12.17;100.00;95019.94;4939078;29;20328;-73
2021/12/30 10:56:59;;;;;;;0.27;0.20;;;;;;;12.14;100.00;95011.44;4937054;29;20194;-73
2021/12/30 10:59:30;;;;;;;0.20;0.20;;;;;;;12.21;100.00;95015.81;4937567;29;20555;-73
2021/12/30 11:02:17;;;;;;;1.70;0.30;;;;;;;12.22;100.00;95014.56;4938001;29;20240;-73
2021/12/30 11:04:49;;;;;;;0.20;0.20;;;;;;;12.32;100.00;95023.50;4948884;29;20618;-73
2021/12/30 11:07:22;;;;;;;0.37;0.20;;;;;;;12.36;100.00;95026.81;4944028;28;20249;-73
2021/12/30 11:09:49;;;;;;;0.60;0.40;;;;;;;12.37;100.00;95025.63;4951004;28;20281;-73
2021/12/30 11:12:26;;;;;;;1.17;0.50;;;;;;;12.49;100.00;95014.41;4953701;28;20195;-73
2021/12/30 11:14:52;;;;;;;0.60;0.30;;;;;;;12.61;100.00;95015.38;4928629;28;20913;-72
2021/12/30 11:17:22;;;;;;;0.30;0.30;;;;;;;12.71;100.00;95016.88;4956418;29;20253;-72
2021/12/30 11:19:52;;;;;;;1.13;0.30;;;;;;;12.79;100.00;95018.78;4956657;28;20194;-72
2021/12/30 11:22:30;;;;;;;0.30;0.30;;;;;;;12.84;100.00;95017.38;4918482;29;20218;-72
2021/12/30 11:25:00;;;;;;;0.20;0.20;;;;;;;12.86;100.00;95032.09;4935755;29;20253;-72
2021/12/30 11:27:29;;;;;;;0.20;0.20;;;;;;;12.76;100.00;95029.94;4918790;29;20245;-73